Tui, Spain
Current Conditions -  °F | °C
As of 3:00 PM on Sunday 21 Dec 2014 (Local Time) from LEVX Reporting Station
Clear Clear  
Wind Chill: 57°   Ceiling: Unl
Heat Index: 57°   Visibility: 6mi
Dew Point: 52°   Wind: 2mph
Humidity: 82%   Direction: NA
Pressure: 30.48"   Gusts: NA
Location:  42.05°N, 8.64°W
Report Text: LEVX 211400Z VRB02KT CAVOK 14/11 Q1032 NOSIG
Loading
Personal Weather Stations






























Interactive Weather Map New forecast layout! Learn more

10-Day Weather Forecast

Advertisements
Track Severe Weather on mobile